Time;durP1;ratioP1;P1;durP2;ratioP2;P2;SDS_P1;SDS_P2;PMS_P1;PMS_P2;Temp;Humidity;BMP_temperature;BMP_pressure;BME280_temperature;BME280_humidity;BME280_pressure;Samples;Min_cycle;Max_cycle;Signal;HPM_P1;HPM_P2
2021/11/21 00:02:16;;;;;;;;;35.25;26.00;;;;;17.87;100.00;101311.88;5061701;28;45746;-79
2021/11/21 00:04:41;;;;;;;;;39.00;23.25;;;;;17.82;99.63;101298.09;5067121;28;45810;-78
2021/11/21 00:07:06;;;;;;;;;30.00;26.00;;;;;17.79;100.00;101298.34;5071165;28;45377;-78
2021/11/21 00:09:32;;;;;;;;;29.75;21.00;;;;;17.80;99.65;101302.72;5072287;27;45399;-80
2021/11/21 00:11:57;;;;;;;;;36.25;20.00;;;;;17.80;99.51;101293.84;5071199;28;45801;-78
2021/11/21 00:14:23;;;;;;;;;29.00;20.50;;;;;17.81;99.96;101293.72;5063464;28;45468;-79
2021/11/21 00:16:49;;;;;;;;;35.25;21.50;;;;;17.85;99.55;101287.09;5053813;28;45515;-79
2021/11/21 00:19:15;;;;;;;;;25.50;21.75;;;;;17.85;99.45;101287.09;5058089;28;45669;-80
2021/11/21 00:21:40;;;;;;;;;30.25;23.75;;;;;17.90;98.81;101276.88;5055739;28;45425;-79
2021/11/21 00:24:05;;;;;;;;;30.75;21.50;;;;;17.93;99.45;101273.94;5055556;28;45538;-78
2021/11/21 00:26:31;;;;;;;;;18.25;15.00;;;;;17.92;99.11;101277.59;5056098;28;45308;-79
2021/11/21 00:28:57;;;;;;;;;25.25;20.00;;;;;17.99;98.76;101264.50;5051882;28;45956;-81
2021/11/21 00:31:22;;;;;;;;;25.00;20.25;;;;;17.93;97.61;101267.75;5058838;28;45438;-79
2021/11/21 00:33:48;;;;;;;;;22.75;19.00;;;;;17.92;98.18;101268.72;5051245;27;45438;-79
2021/11/21 00:36:14;;;;;;;;;16.00;14.00;;;;;17.88;97.35;101260.13;5052084;28;45240;-78
2021/11/21 00:38:40;;;;;;;;;19.75;16.25;;;;;17.86;96.78;101261.22;5059109;28;45172;-79
2021/11/21 00:41:05;;;;;;;;;20.75;15.50;;;;;17.74;96.63;101257.84;5057704;28;45236;-79
2021/11/21 00:43:32;;;;;;;;;22.00;12.50;;;;;17.68;97.39;101249.53;5060706;28;45315;-79
2021/11/21 00:45:58;;;;;;;;;23.75;15.75;;;;;17.63;97.51;101249.09;5064532;28;45299;-78
2021/11/21 00:48:23;;;;;;;;;22.25;16.25;;;;;17.67;97.77;101237.16;5049284;28;45729;-79
2021/11/21 00:50:54;;;;;;;;;21.25;17.50;;;;;17.55;98.11;101236.41;5051395;28;45462;-78
2021/11/21 00:53:20;;;;;;;;;23.00;16.25;;;;;17.56;98.70;101248.78;5049189;28;45464;-78
2021/11/21 00:55:54;;;;;;;;;25.00;13.75;;;;;17.58;98.75;101249.47;5053481;28;45427;-78
2021/11/21 00:58:20;;;;;;;;;24.75;19.25;;;;;17.69;98.15;101235.19;5059761;28;45456;-78
2021/11/21 01:00:49;;;;;;;;;24.50;15.00;;;;;17.76;98.05;101233.66;5062146;28;45457;-78
2021/11/21 01:03:17;;;;;;;;;25.50;18.25;;;;;17.79;97.81;101230.72;5063199;28;46141;-78
2021/11/21 01:05:44;;;;;;;;;26.25;20.00;;;;;17.78;97.87;101235.22;5065614;28;46176;-78
2021/11/21 01:08:10;;;;;;;;;26.00;20.00;;;;;17.77;97.22;101227.34;5057412;28;45493;-78
2021/11/21 01:10:35;;;;;;;;;20.25;15.00;;;;;17.74;97.78;101231.16;5062023;28;45394;-78
2021/11/21 01:13:01;;;;;;;;;26.75;16.50;;;;;17.78;97.01;101229.88;5061531;28;45494;-78
2021/11/21 01:15:27;;;;;;;;;24.25;20.25;;;;;17.57;97.67;101223.75;5050221;28;45304;-78
2021/11/21 01:17:55;;;;;;;;;25.25;16.00;;;;;17.55;98.54;101233.75;5049957;28;45416;-78
2021/11/21 01:20:23;;;;;;;;;23.75;20.50;;;;;17.54;98.67;101232.03;5056965;28;45417;-78
2021/11/21 01:22:49;;;;;;;;;25.25;19.00;;;;;17.50;99.00;101230.63;5061358;28;45446;-78
2021/11/21 01:25:15;;;;;;;;;36.75;21.00;;;;;17.38;98.90;101226.38;5059345;28;45300;-78
2021/11/21 01:27:42;;;;;;;;;26.00;20.00;;;;;17.34;99.59;101224.94;5056254;28;45375;-78
2021/11/21 01:30:12;;;;;;;;;28.50;17.50;;;;;17.44;99.78;101223.16;5058999;28;45346;-78
2021/11/21 01:32:37;;;;;;;;;30.75;22.25;;;;;17.30;100.00;101224.34;5059094;28;47244;-78
2021/11/21 01:35:03;;;;;;;;;27.50;19.25;;;;;17.31;100.00;101225.22;5061137;28;45141;-78
2021/11/21 01:37:29;;;;;;;;;28.00;20.00;;;;;17.17;100.00;101218.44;5051381;28;45406;-78
2021/11/21 01:39:54;;;;;;;;;26.50;21.25;;;;;17.19;100.00;101220.00;5057664;28;45264;-78
2021/11/21 01:42:20;;;;;;;;;29.50;23.00;;;;;17.21;100.00;101217.16;5061874;28;45386;-78
2021/11/21 01:44:45;;;;;;;;;21.50;19.50;;;;;17.20;100.00;101204.81;5059334;28;45427;-78
2021/11/21 01:47:11;;;;;;;;;30.50;24.25;;;;;17.25;100.00;101217.75;5056191;28;45605;-78
2021/11/21 01:49:36;;;;;;;;;37.50;22.50;;;;;17.17;100.00;101218.44;5063989;28;45843;-78
2021/11/21 01:52:02;;;;;;;;;33.50;21.50;;;;;17.13;100.00;101225.84;5056290;28;45618;-78
2021/11/21 01:54:28;;;;;;;;;29.00;22.75;;;;;17.08;100.00;101220.06;5053806;28;45573;-78
2021/11/21 01:56:53;;;;;;;;;27.75;19.25;;;;;16.98;100.00;101210.34;5057176;28;45356;-78
2021/11/21 01:59:19;;;;;;;;;32.25;21.50;;;;;17.06;100.00;101214.03;5052853;28;45335;-78
2021/11/21 02:01:46;;;;;;;;;27.75;23.75;;;;;17.09;100.00;101207.59;5060433;28;46080;-78
2021/11/21 02:04:11;;;;;;;;;31.75;21.00;;;;;17.02;100.00;101209.09;5062442;28;45646;-78
2021/11/21 02:06:37;;;;;;;;;19.75;15.75;;;;;17.06;100.00;101206.00;5049770;28;45404;-78
2021/11/21 02:09:04;;;;;;;;;19.25;14.25;;;;;16.99;100.00;101212.88;5053083;28;45180;-78
2021/11/21 02:11:29;;;;;;;;;28.00;23.00;;;;;16.88;100.00;101207.63;5060314;28;45300;-78
2021/11/21 02:13:55;;;;;;;;;25.00;18.00;;;;;16.95;100.00;101199.91;5059055;28;45382;-78
2021/11/21 02:16:24;;;;;;;;;29.25;22.00;;;;;17.03;100.00;101198.28;5047943;28;45404;-78
2021/11/21 02:18:50;;;;;;;;;31.00;23.00;;;;;16.88;100.00;101198.78;5066715;28;45541;-78
2021/11/21 02:21:17;;;;;;;;;24.75;19.00;;;;;16.97;100.00;101190.81;5060765;28;46357;-78
2021/11/21 02:23:44;;;;;;;;;33.25;21.50;;;;;16.98;100.00;101187.16;5058145;28;45326;-78
2021/11/21 02:26:10;;;;;;;;;27.50;19.50;;;;;16.94;100.00;101192.88;5054700;28;45539;-78
2021/11/21 02:28:36;;;;;;;;;31.00;20.75;;;;;16.86;100.00;101184.72;5056476;28;45585;-78
2021/11/21 02:31:02;;;;;;;;;31.00;25.00;;;;;16.68;100.00;101171.16;5061163;28;45413;-78
2021/11/21 02:33:28;;;;;;;;;30.50;24.50;;;;;16.86;100.00;101179.38;5055626;28;45449;-77
2021/11/21 02:35:57;;;;;;;;;25.50;17.50;;;;;17.00;100.00;101177.22;5041378;28;45332;-78
2021/11/21 02:38:25;;;;;;;;;24.00;21.50;;;;;17.04;100.00;101183.94;5065827;28;45464;-78
2021/11/21 02:40:52;;;;;;;;;29.75;24.50;;;;;16.96;100.00;101167.78;5061421;28;45312;-77
2021/11/21 02:43:18;;;;;;;;;33.25;26.00;;;;;16.87;100.00;101170.41;5054755;28;45745;-78
2021/11/21 02:45:45;;;;;;;;;33.25;26.50;;;;;16.86;100.00;101174.03;5049002;28;45484;-78
2021/11/21 02:48:11;;;;;;;;;25.25;21.75;;;;;16.80;100.00;101168.28;5040528;28;45424;-78
2021/11/21 02:50:37;;;;;;;;;33.00;23.00;;;;;16.80;100.00;101165.59;5053614;28;48206;-78
2021/11/21 02:53:03;;;;;;;;;26.00;21.25;;;;;16.83;100.00;101162.69;5073192;28;45282;-78
2021/11/21 02:55:31;;;;;;;;;35.75;19.00;;;;;16.80;100.00;101160.28;5062360;27;45228;-78
2021/11/21 02:57:57;;;;;;;;;28.00;21.00;;;;;16.74;100.00;101166.16;5070941;28;45542;-78
2021/11/21 03:00:23;;;;;;;;;30.25;22.50;;;;;16.69;100.00;101154.16;5059602;28;46514;-78
2021/11/21 03:02:49;;;;;;;;;34.50;23.75;;;;;16.62;100.00;101142.34;5045210;28;45496;-78
2021/11/21 03:05:16;;;;;;;;;26.25;18.00;;;;;16.51;100.00;101137.06;5052018;28;45273;-78
2021/11/21 03:07:42;;;;;;;;;32.25;23.75;;;;;16.45;100.00;101135.78;5055527;28;45513;-78
2021/11/21 03:10:09;;;;;;;;;30.75;23.25;;;;;16.30;100.00;101127.25;5063541;28;46027;-77
2021/11/21 03:12:34;;;;;;;;;32.50;21.25;;;;;16.27;100.00;101132.88;5058231;28;45264;-76
2021/11/21 03:15:00;;;;;;;;;35.00;21.25;;;;;16.28;100.00;101123.91;5071514;28;45432;-77
2021/11/21 03:17:25;;;;;;;;;35.25;20.25;;;;;16.27;100.00;101119.53;5062986;28;45493;-77
2021/11/21 03:19:51;;;;;;;;;28.75;21.00;;;;;16.22;100.00;101115.56;5064945;28;46263;-77
2021/11/21 03:22:16;;;;;;;;;35.75;19.50;;;;;16.29;100.00;101114.94;5058852;28;45668;-77
2021/11/21 03:24:42;;;;;;;;;33.50;22.75;;;;;16.32;100.00;101111.97;5058928;28;45384;-77
2021/11/21 03:27:08;;;;;;;;;34.75;21.50;;;;;16.28;100.00;101107.91;5060043;28;45473;-77
2021/11/21 03:29:34;;;;;;;;;31.00;24.75;;;;;16.33;100.00;101105.69;5058032;28;45547;-77
2021/11/21 03:32:02;;;;;;;;;33.00;21.75;;;;;16.36;100.00;101110.75;5050200;28;45439;-77
2021/11/21 03:34:29;;;;;;;;;29.25;23.75;;;;;16.37;100.00;101112.47;5053803;28;45402;-77
2021/11/21 03:36:55;;;;;;;;;35.25;27.75;;;;;16.45;100.00;101109.97;5045885;28;45228;-77
2021/11/21 03:39:20;;;;;;;;;41.50;26.75;;;;;16.52;100.00;101110.28;5059142;28;46293;-77
2021/11/21 03:41:45;;;;;;;;;28.75;20.75;;;;;16.44;100.00;101110.94;5060143;28;45286;-77
2021/11/21 03:44:11;;;;;;;;;35.50;24.75;;;;;16.44;100.00;101108.28;5049806;28;45322;-77
2021/11/21 03:46:38;;;;;;;;;23.75;17.00;;;;;16.54;100.00;101112.81;5051340;28;45479;-77
2021/11/21 03:49:05;;;;;;;;;33.00;20.25;;;;;16.54;100.00;101103.00;5051618;28;45814;-77
2021/11/21 03:51:32;;;;;;;;;36.00;22.25;;;;;16.60;100.00;101101.59;5060059;28;45424;-77
2021/11/21 03:53:57;;;;;;;;;31.00;22.25;;;;;16.53;100.00;101095.13;5046840;28;45477;-77
2021/11/21 03:56:22;;;;;;;;;31.25;23.75;;;;;16.56;100.00;101101.03;5057364;28;45264;-77
2021/11/21 03:58:49;;;;;;;;;35.25;27.00;;;;;16.59;100.00;101102.59;5058184;28;45257;-76
2021/11/21 04:01:14;;;;;;;;;37.25;25.75;;;;;16.55;100.00;101096.69;5054171;28;45310;-77
2021/11/21 04:03:42;;;;;;;;;42.75;26.75;;;;;16.59;100.00;101105.25;5057371;28;45390;-77
2021/11/21 04:06:07;;;;;;;;;29.00;18.50;;;;;16.54;100.00;101099.47;5059858;28;45373;-77
2021/11/21 04:08:33;;;;;;;;;35.00;24.50;;;;;16.36;100.00;101108.09;5046143;28;45280;-77
2021/11/21 04:10:58;;;;;;;;;36.75;25.00;;;;;16.27;100.00;101103.56;5059566;28;45282;-77
2021/11/21 04:13:23;;;;;;;;;38.50;27.50;;;;;16.27;100.00;101100.03;5062983;28;45490;-76
2021/11/21 04:15:49;;;;;;;;;35.25;25.00;;;;;16.25;100.00;101086.84;5071803;27;45449;-77
2021/11/21 04:18:15;;;;;;;;;35.25;25.25;;;;;16.29;100.00;101095.44;5074751;28;46158;-77
2021/11/21 04:20:40;;;;;;;;;47.75;26.25;;;;;16.23;100.00;101088.78;5046082;28;45334;-77
2021/11/21 04:23:06;;;;;;;;;29.50;21.75;;;;;16.20;100.00;101091.75;5059403;28;45510;-77
2021/11/21 04:25:31;;;;;;;;;35.25;24.50;;;;;16.18;100.00;101098.16;5045738;28;45278;-77
2021/11/21 04:27:57;;;;;;;;;33.75;24.25;;;;;16.08;100.00;101085.63;5060236;28;45331;-78
2021/11/21 04:30:22;;;;;;;;;39.50;28.00;;;;;16.09;100.00;101084.66;5073794;28;45227;-76
2021/11/21 04:32:48;;;;;;;;;36.00;25.25;;;;;16.18;100.00;101076.84;5059088;28;45527;-77
2021/11/21 04:35:16;;;;;;;;;36.50;27.50;;;;;16.29;100.00;101072.28;5047048;28;45530;-77
2021/11/21 04:37:42;;;;;;;;;40.50;27.75;;;;;16.31;100.00;101062.31;5061110;28;47157;-76
2021/11/21 04:40:11;;;;;;;;;42.50;27.75;;;;;16.24;100.00;101071.84;5060923;28;45623;-77
2021/11/21 04:42:36;;;;;;;;;35.25;21.75;;;;;16.22;100.00;101068.44;5063669;28;45603;-77
2021/11/21 04:45:03;;;;;;;;;31.25;20.25;;;;;16.27;100.00;101068.06;5062862;28;45516;-77
2021/11/21 04:47:29;;;;;;;;;37.50;27.50;;;;;16.37;100.00;101059.16;5060445;28;46677;-78
2021/11/21 04:49:54;;;;;;;;;29.25;22.50;;;;;16.29;100.00;101069.63;5060447;28;45339;-77
2021/11/21 04:52:19;;;;;;;;;30.00;20.00;;;;;16.27;100.00;101066.25;5048524;28;45141;-77
2021/11/21 04:54:46;;;;;;;;;26.25;18.25;;;;;16.31;100.00;101049.00;5053190;28;45391;-77
2021/11/21 04:57:11;;;;;;;;;36.50;22.25;;;;;17.28;100.00;101057.34;5064982;28;46116;-77
2021/11/21 04:59:37;;;;;;;;;29.75;24.75;;;;;17.49;100.00;101055.34;5062042;28;45490;-77
2021/11/21 05:02:04;;;;;;;;;30.75;23.50;;;;;17.34;100.00;101048.75;5067441;28;45719;-77
2021/11/21 05:04:29;;;;;;;;;31.25;20.25;;;;;17.12;100.00;101048.03;5063179;28;45404;-77
2021/11/21 05:06:55;;;;;;;;;30.25;20.75;;;;;17.10;100.00;101049.16;5062199;28;46271;-77
2021/11/21 05:09:20;;;;;;;;;26.00;20.75;;;;;17.07;100.00;101041.44;5045294;28;45383;-77
2021/11/21 05:11:46;;;;;;;;;29.00;20.00;;;;;16.96;100.00;101034.38;5062583;28;45453;-77
2021/11/21 05:14:15;;;;;;;;;26.50;21.00;;;;;16.97;100.00;101028.06;5063732;28;45497;-78
2021/11/21 05:16:40;;;;;;;;;28.25;18.75;;;;;16.83;100.00;101037.31;5069054;28;46264;-77
2021/11/21 05:19:05;;;;;;;;;26.50;17.50;;;;;16.81;100.00;101033.09;5070485;28;45360;-77
2021/11/21 05:21:31;;;;;;;;;41.75;24.75;;;;;16.77;100.00;101024.50;5062406;28;45339;-77
2021/11/21 05:23:56;;;;;;;;;27.75;19.50;;;;;16.76;100.00;101022.81;5059950;28;45588;-78
2021/11/21 05:26:24;;;;;;;;;26.25;19.75;;;;;16.72;100.00;101029.41;5059754;28;46248;-78
2021/11/21 05:28:50;;;;;;;;;31.25;19.75;;;;;16.45;100.00;101024.66;5053702;28;45635;-78
2021/11/21 05:31:15;;;;;;;;;36.00;21.25;;;;;16.50;100.00;101029.59;5050178;28;45346;-78
2021/11/21 05:33:40;;;;;;;;;32.50;20.50;;;;;16.52;100.00;101027.63;5056076;28;45532;-80
2021/11/21 05:36:06;;;;;;;;;24.50;20.00;;;;;16.45;100.00;101021.16;5047815;28;45899;-77
2021/11/21 05:38:31;;;;;;;;;31.50;22.75;;;;;16.47;100.00;101024.53;5059676;28;45428;-77
2021/11/21 05:40:57;;;;;;;;;29.50;18.75;;;;;16.49;100.00;101022.56;5054844;28;45394;-78
2021/11/21 05:43:22;;;;;;;;;19.75;16.50;;;;;16.47;100.00;101024.53;5054908;28;45359;-79
2021/11/21 05:45:48;;;;;;;;;29.75;19.25;;;;;16.54;100.00;101023.00;5054356;28;45533;-79
2021/11/21 05:48:13;;;;;;;;;27.25;18.50;;;;;16.61;100.00;101021.53;5060107;28;45533;-79
2021/11/21 05:50:38;;;;;;;;;25.75;20.00;;;;;16.58;100.00;101015.56;5051487;28;45440;-78
2021/11/21 05:53:04;;;;;;;;;37.25;16.00;;;;;16.56;100.00;101013.06;5060946;28;45299;-79
2021/11/21 05:55:29;;;;;;;;;24.00;17.00;;;;;16.57;100.00;101001.41;5058616;28;45310;-79
2021/11/21 05:57:55;;;;;;;;;28.75;19.00;;;;;16.62;100.00;101011.69;5059775;28;45331;-77
2021/11/21 06:00:23;;;;;;;;;29.25;19.75;;;;;16.77;100.00;101013.84;5055978;28;45418;-79
2021/11/21 06:02:49;;;;;;;;;24.50;21.50;;;;;16.70;100.00;101010.03;5059756;28;45481;-79
2021/11/21 06:05:15;;;;;;;;;26.50;18.75;;;;;16.60;100.00;101008.28;5051141;28;47427;-79
2021/11/21 06:07:41;;;;;;;;;24.50;19.75;;;;;16.56;100.00;101009.56;5044936;28;45413;-77
2021/11/21 06:10:08;;;;;;;;;23.50;18.00;;;;;16.56;100.00;101002.41;5059673;28;45458;-78
2021/11/21 06:12:33;;;;;;;;;30.25;19.25;;;;;16.59;100.00;100993.25;5051700;28;45449;-78
2021/11/21 06:14:59;;;;;;;;;32.00;20.75;;;;;16.67;100.00;100996.97;5060615;28;45410;-78
2021/11/21 06:17:24;;;;;;;;;28.75;18.00;;;;;16.62;100.00;100995.69;5060126;28;45386;-78
2021/11/21 06:19:50;;;;;;;;;26.00;17.00;;;;;16.56;100.00;100990.88;5060953;28;45407;-78
2021/11/21 06:22:17;;;;;;;;;29.00;20.00;;;;;16.60;100.00;100992.28;5062463;28;45200;-78
2021/11/21 06:24:44;;;;;;;;;32.75;24.50;;;;;16.74;100.00;100999.94;5052328;28;45446;-78
2021/11/21 06:27:10;;;;;;;;;28.50;18.00;;;;;16.77;100.00;100989.84;5071980;28;45867;-78
2021/11/21 06:29:36;;;;;;;;;28.50;18.50;;;;;16.64;100.00;100985.75;5060751;28;45405;-78
2021/11/21 06:32:01;;;;;;;;;24.00;19.00;;;;;16.65;100.00;100993.63;5060702;28;45420;-78
2021/11/21 06:34:26;;;;;;;;;33.75;20.00;;;;;16.70;100.00;100994.03;5064311;28;46988;-79
2021/11/21 06:36:52;;;;;;;;;29.50;19.00;;;;;16.72;100.00;100993.91;5049364;28;45230;-78
2021/11/21 06:39:18;;;;;;;;;35.75;17.50;;;;;16.76;100.00;100996.16;5050685;28;45682;-78
2021/11/21 06:41:43;;;;;;;;;24.00;18.00;;;;;16.74;100.00;100992.78;5051090;28;45542;-77
2021/11/21 06:44:09;;;;;;;;;25.50;16.25;;;;;16.69;100.00;100987.00;5049460;28;45365;-77
2021/11/21 06:46:36;;;;;;;;;35.25;19.25;;;;;16.81;100.00;100982.41;5049779;28;45232;-77
2021/11/21 06:49:01;;;;;;;;;26.25;20.00;;;;;16.81;100.00;100987.75;5055258;28;45268;-77
2021/11/21 06:51:30;;;;;;;;;25.25;20.50;;;;;16.75;100.00;100989.13;5052716;28;46558;-78
2021/11/21 06:53:56;;;;;;;;;27.00;22.00;;;;;16.59;100.00;100995.94;5053543;28;45358;-78
2021/11/21 06:56:23;;;;;;;;;30.00;18.75;;;;;16.51;100.00;100987.78;5051119;28;45533;-78
2021/11/21 06:58:48;;;;;;;;;24.50;19.75;;;;;16.53;100.00;100993.81;5053892;28;45318;-78
2021/11/21 07:01:15;;;;;;;;;23.25;18.50;;;;;16.55;100.00;100992.72;5043404;28;45477;-78
2021/11/21 07:03:40;;;;;;;;;25.50;15.25;;;;;16.56;100.00;100993.56;5055823;28;45335;-77
2021/11/21 07:06:06;;;;;;;;;28.25;19.75;;;;;16.52;100.00;101000.97;5058140;28;45627;-77
2021/11/21 07:08:31;;;;;;;;;27.00;18.00;;;;;16.55;100.00;100990.03;5054562;28;45419;-77
2021/11/21 07:10:57;;;;;;;;;25.25;18.00;;;;;16.51;100.00;100985.09;5050470;28;45389;-77
2021/11/21 07:13:22;;;;;;;;;29.25;17.50;;;;;16.51;100.00;100990.44;5058602;28;45288;-77
2021/11/21 07:15:49;;;;;;;;;25.50;20.25;;;;;16.59;100.00;100993.25;5045414;28;45374;-77
2021/11/21 07:18:14;;;;;;;;;22.25;17.25;;;;;16.62;100.00;100985.88;5055812;28;45385;-77
2021/11/21 07:20:40;;;;;;;;;19.50;14.50;;;;;16.56;100.00;100989.06;5053791;28;47290;-77
2021/11/21 07:23:06;;;;;;;;;23.00;17.50;;;;;16.53;100.00;100992.00;5053573;28;45473;-77
2021/11/21 07:25:32;;;;;;;;;29.75;17.50;;;;;16.46;100.00;100980.19;5072291;28;45422;-77
2021/11/21 07:27:58;;;;;;;;;28.25;15.50;;;;;16.40;100.00;100992.22;5068329;28;45254;-77
2021/11/21 07:30:25;;;;;;;;;23.00;14.25;;;;;16.51;100.00;100985.94;5059977;28;45445;-78
2021/11/21 07:32:51;;;;;;;;;20.75;14.50;;;;;16.58;100.00;100988.91;5057884;28;47193;-79
2021/11/21 07:35:18;;;;;;;;;21.75;12.25;;;;;16.65;100.00;100984.78;5056446;28;45426;-79
2021/11/21 07:37:45;;;;;;;;;19.75;12.75;;;;;16.62;100.00;100982.38;5060146;28;45322;-78
2021/11/21 07:40:12;;;;;;;;;24.25;17.00;;;;;16.60;100.00;100977.13;5059306;28;45425;-79
2021/11/21 07:42:38;;;;;;;;;23.75;16.75;;;;;16.69;100.00;100970.16;5046780;28;45344;-79
2021/11/21 07:45:05;;;;;;;;;23.50;13.75;;;;;16.68;100.00;100976.47;5066350;28;45593;-78
2021/11/21 07:47:30;;;;;;;;;20.00;14.00;;;;;16.57;100.00;100972.06;5044187;28;45334;-79
2021/11/21 07:49:57;;;;;;;;;21.50;15.50;;;;;16.47;100.00;100971.22;5057421;28;45266;-79
2021/11/21 07:52:24;;;;;;;;;24.50;14.50;;;;;16.61;100.00;100972.66;5054936;28;47334;-78
2021/11/21 07:54:49;;;;;;;;;19.25;14.50;;;;;16.71;100.00;100971.72;5051571;28;45989;-79
2021/11/21 07:57:14;;;;;;;;;20.75;13.75;;;;;16.75;100.00;100980.31;5058573;28;45411;-78
2021/11/21 07:59:40;;;;;;;;;31.75;17.75;;;;;16.91;100.00;100971.75;5045477;28;45505;-78
2021/11/21 08:02:05;;;;;;;;;21.25;14.50;;;;;17.01;100.00;100980.63;5053764;28;45395;-77
2021/11/21 08:04:31;;;;;;;;;30.00;17.50;;;;;16.99;100.00;100972.75;5059643;28;45363;-78
2021/11/21 08:06:56;;;;;;;;;23.75;17.50;;;;;16.87;100.00;100981.00;5063948;28;45496;-76
2021/11/21 08:09:22;;;;;;;;;24.25;15.00;;;;;16.79;100.00;100979.03;5067999;28;45640;-78
2021/11/21 08:11:47;;;;;;;;;20.25;12.75;;;;;16.81;100.00;100985.94;5072557;28;47320;-77
2021/11/21 08:14:12;;;;;;;;;19.25;14.25;;;;;16.86;100.00;100977.50;5067754;28;45358;-79
2021/11/21 08:16:38;;;;;;;;;31.00;18.50;;;;;16.72;100.00;100970.75;5066151;28;45409;-77
2021/11/21 08:19:03;;;;;;;;;19.50;15.50;;;;;16.71;100.00;100974.41;5066368;28;45542;-78
2021/11/21 08:21:28;;;;;;;;;20.75;15.50;;;;;16.64;100.00;100969.75;5053813;28;47102;-79
2021/11/21 08:23:54;;;;;;;;;20.00;19.25;;;;;16.63;100.00;100968.06;5069263;28;45319;-79
2021/11/21 08:26:19;;;;;;;;;26.00;19.50;;;;;16.71;100.00;100974.41;5071487;28;45318;-77
2021/11/21 08:28:45;;;;;;;;;31.75;19.50;;;;;16.96;100.00;100985.50;5062387;28;45396;-78
2021/11/21 08:31:10;;;;;;;;;24.50;19.25;;;;;16.90;100.00;100973.59;5060209;28;46089;-78
2021/11/21 08:33:35;;;;;;;;;25.50;18.25;;;;;16.95;100.00;100968.66;5062589;28;45313;-78
2021/11/21 08:36:01;;;;;;;;;22.75;16.75;;;;;16.99;100.00;100969.25;5061919;28;46287;-78
2021/11/21 08:38:27;;;;;;;;;23.00;16.75;;;;;16.97;100.00;100963.19;5057524;28;45621;-78
2021/11/21 08:40:53;;;;;;;;;18.50;17.25;;;;;16.99;100.00;100971.91;5063318;28;46472;-78
2021/11/21 08:43:18;;;;;;;;;22.75;15.00;;;;;16.96;100.00;100973.03;5061421;28;45390;-78
2021/11/21 08:45:45;;;;;;;;;19.50;18.00;;;;;17.01;100.00;100972.63;5068328;28;46441;-78
2021/11/21 08:48:11;;;;;;;;;29.00;19.75;;;;;17.04;100.00;100967.81;5070135;28;45461;-78
2021/11/21 08:50:36;;;;;;;;;18.75;15.50;;;;;16.86;100.00;100961.50;5066775;27;46342;-78
2021/11/21 08:53:02;;;;;;;;;24.25;18.50;;;;;16.92;100.00;100966.28;5069399;28;45441;-78
2021/11/21 08:55:28;;;;;;;;;20.75;18.50;;;;;17.01;100.00;100961.94;5073534;28;45366;-78
2021/11/21 08:57:54;;;;;;;;;27.50;18.00;;;;;16.96;100.00;100962.34;5069931;27;45415;-78
2021/11/21 09:00:20;;;;;;;;;35.75;17.25;;;;;16.98;100.00;100971.06;5061046;28;46100;-77
2021/11/21 09:02:46;;;;;;;;;33.75;17.75;;;;;17.09;100.00;100970.09;5059668;28;45851;-78
2021/11/21 09:05:12;;;;;;;;;24.00;14.50;;;;;17.10;100.00;100961.94;5076608;28;45382;-78
2021/11/21 09:07:40;;;;;;;;;25.25;16.75;;;;;17.27;100.00;100975.56;5060691;28;45532;-78
2021/11/21 09:10:09;;;;;;;;;21.25;16.25;;;;;17.36;100.00;100975.56;5054925;28;47139;-78
2021/11/21 09:12:35;;;;;;;;;25.00;17.25;;;;;17.17;100.00;100965.75;5064248;28;45464;-78
2021/11/21 09:15:00;;;;;;;;;17.75;12.50;;;;;17.16;100.00;100964.06;5062704;28;45525;-78
2021/11/21 09:17:26;;;;;;;;;20.75;15.50;;;;;17.25;100.00;100958.84;5058877;28;45426;-77
2021/11/21 09:19:51;;;;;;;;;17.50;15.00;;;;;17.39;100.00;100958.44;5061901;28;45217;-77
2021/11/21 09:22:17;;;;;;;;;25.00;16.00;;;;;17.44;100.00;100945.50;5069335;28;45207;-77
2021/11/21 09:24:42;;;;;;;;;26.00;14.00;;;;;17.62;100.00;100933.13;5071233;28;45543;-77
2021/11/21 09:27:13;;;;;;;;;19.75;12.25;;;;;17.42;100.00;100936.78;5060096;28;45515;-79
2021/11/21 09:29:39;;;;;;;;;17.00;16.50;;;;;17.30;100.00;100943.28;5060043;28;48396;-77
2021/11/21 09:32:05;;;;;;;;;23.75;15.00;;;;;17.41;100.00;100951.09;5049660;28;45315;-78
2021/11/21 09:34:30;;;;;;;;;18.50;13.25;;;;;17.51;100.00;100959.94;5052472;28;45474;-79
2021/11/21 09:36:56;;;;;;;;;16.25;13.25;;;;;17.50;100.00;100958.25;5052749;28;45356;-78
2021/11/21 09:39:21;;;;;;;;;20.75;13.50;;;;;17.48;100.00;100958.41;5053888;28;46189;-78
2021/11/21 09:41:47;;;;;;;;;20.25;15.00;;;;;17.57;100.00;100962.88;5047965;28;45447;-78
2021/11/21 09:44:14;;;;;;;;;24.50;17.50;;;;;17.57;100.00;100967.41;5050262;28;45500;-78
2021/11/21 09:46:40;;;;;;;;;21.50;19.25;;;;;17.74;100.00;100972.03;5042537;28;45422;-78
2021/11/21 09:49:05;;;;;;;;;23.50;20.75;;;;;17.68;100.00;100974.41;5057104;28;46355;-78
2021/11/21 09:51:31;;;;;;;;;22.25;19.50;;;;;17.59;100.00;100962.75;5060842;28;45622;-78
2021/11/21 09:53:56;;;;;;;;;24.50;17.50;;;;;17.51;100.00;100963.47;5057966;28;45514;-78
2021/11/21 09:56:24;;;;;;;;;28.25;21.00;;;;;17.73;100.00;100961.50;5049644;28;45517;-78
2021/11/21 09:58:49;;;;;;;;;20.50;18.75;;;;;17.86;100.00;100962.00;5051192;28;45544;-78
2021/11/21 10:01:37;;;;;;;;;22.50;18.75;;;;;17.99;100.00;100951.84;5056208;28;45395;-78
2021/11/21 10:04:04;;;;;;;;;19.00;15.00;;;;;18.05;100.00;100956.59;5051334;28;45411;-78
2021/11/21 10:06:34;;;;;;;;;19.25;18.25;;;;;17.93;100.00;100952.44;5058660;28;45712;-78
2021/11/21 10:09:00;;;;;;;;;22.00;16.75;;;;;17.88;100.00;100957.38;5046553;28;45423;-78
2021/11/21 10:11:26;;;;;;;;;25.75;18.25;;;;;17.89;100.00;100956.38;5055692;28;45359;-78
2021/11/21 10:13:55;;;;;;;;;22.25;18.00;;;;;17.94;100.00;100946.94;5077294;27;45266;-78
2021/11/21 10:16:31;;;;;;;;;20.50;18.50;;;;;18.27;100.00;100934.00;5053814;28;45679;-78
2021/11/21 10:18:58;;;;;;;;;19.75;17.50;;;;;18.27;100.00;100940.19;5064256;28;46821;-78
2021/11/21 10:21:28;;;;;;;;;21.75;17.00;;;;;18.32;100.00;100931.72;5060285;28;45415;-77
2021/11/21 10:24:14;;;;;;;;;21.50;16.25;;;;;18.42;100.00;100937.00;5059878;28;45504;-78
2021/11/21 10:26:41;;;;;;;;;23.00;19.00;;;;;18.16;100.00;100931.53;5058927;28;45477;-78
2021/11/21 10:29:26;;;;;;;;;23.25;20.75;;;;;18.39;100.00;100935.47;5064023;28;45523;-79
2021/11/21 10:31:52;;;;;;;;;29.00;19.25;;;;;18.34;100.00;100935.09;5056790;28;45876;-78
2021/11/21 10:34:18;;;;;;;;;22.25;17.50;;;;;18.43;100.00;100938.69;5051743;28;45366;-78
2021/11/21 10:36:43;;;;;;;;;21.00;16.50;;;;;18.47;100.00;100934.75;5047000;28;45226;-78
2021/11/21 10:39:10;;;;;;;;;23.50;18.25;;;;;18.64;100.00;100934.81;5059411;28;46186;-78
2021/11/21 10:41:39;;;;;;;;;24.50;18.75;;;;;18.55;100.00;100930.34;5053521;28;45165;-78
2021/11/21 10:44:15;;;;;;;;;22.50;18.75;;;;;18.60;100.00;100920.03;5058293;28;45410;-80
2021/11/21 10:46:45;;;;;;;;;35.75;20.75;;;;;18.63;100.00;100925.09;5056692;28;45748;-79
2021/11/21 10:49:13;;;;;;;;;22.75;16.75;;;;;18.73;100.00;100919.69;5062427;28;45232;-78
2021/11/21 10:51:40;;;;;;;;;23.00;21.00;;;;;18.66;100.00;100923.97;5060275;28;45610;-79
2021/11/21 10:54:17;;;;;;;;;26.00;21.25;;;;;18.58;100.00;100922.00;5057227;28;45421;-78
2021/11/21 10:56:48;;;;;;;;;29.75;21.75;;;;;18.50;100.00;100921.06;5057335;28;46348;-79
2021/11/21 10:59:13;;;;;;;;;34.50;24.75;;;;;18.56;100.00;100921.31;5061656;28;46720;-79